sensor_id;sensor_type;location;lat;lon;timestamp;P1;durP1;ratioP1;P2;durP2;ratioP2
3369;SDS011;42042;51.948;7.628;2023-03-23T00:00:53;8.40;;;7.50;;
3369;SDS011;42042;51.948;7.628;2023-03-23T00:03:20;9.60;;;8.13;;
3369;SDS011;42042;51.948;7.628;2023-03-23T00:05:50;10.00;;;8.33;;
3369;SDS011;42042;51.948;7.628;2023-03-23T00:08:18;9.07;;;7.73;;
3369;SDS011;42042;51.948;7.628;2023-03-23T00:10:48;15.63;;;7.30;;
3369;SDS011;42042;51.948;7.628;2023-03-23T00:13:17;12.43;;;7.87;;
3369;SDS011;42042;51.948;7.628;2023-03-23T00:15:45;10.90;;;7.90;;
3369;SDS011;42042;51.948;7.628;2023-03-23T00:18:13;18.43;;;8.27;;
3369;SDS011;42042;51.948;7.628;2023-03-23T00:20:46;12.83;;;8.37;;
3369;SDS011;42042;51.948;7.628;2023-03-23T00:23:14;11.53;;;8.90;;
3369;SDS011;42042;51.948;7.628;2023-03-23T00:25:44;9.27;;;8.37;;
3369;SDS011;42042;51.948;7.628;2023-03-23T00:28:13;10.73;;;8.03;;
3369;SDS011;42042;51.948;7.628;2023-03-23T00:30:40;12.77;;;7.43;;
3369;SDS011;42042;51.948;7.628;2023-03-23T00:33:09;9.10;;;7.23;;
3369;SDS011;42042;51.948;7.628;2023-03-23T00:35:38;11.97;;;8.07;;
3369;SDS011;42042;51.948;7.628;2023-03-23T00:38:05;9.23;;;7.27;;
3369;SDS011;42042;51.948;7.628;2023-03-23T00:40:33;9.13;;;6.27;;
3369;SDS011;42042;51.948;7.628;2023-03-23T00:43:02;10.90;;;6.33;;
3369;SDS011;42042;51.948;7.628;2023-03-23T00:45:31;7.83;;;7.00;;
3369;SDS011;42042;51.948;7.628;2023-03-23T00:47:59;12.47;;;6.80;;
3369;SDS011;42042;51.948;7.628;2023-03-23T00:50:30;15.43;;;6.87;;
3369;SDS011;42042;51.948;7.628;2023-03-23T00:52:57;8.90;;;6.30;;
3369;SDS011;42042;51.948;7.628;2023-03-23T00:55:25;9.40;;;6.70;;
3369;SDS011;42042;51.948;7.628;2023-03-23T00:57:52;8.60;;;7.17;;
3369;SDS011;42042;51.948;7.628;2023-03-23T01:00:19;8.33;;;7.00;;
3369;SDS011;42042;51.948;7.628;2023-03-23T01:02:49;12.17;;;7.17;;
3369;SDS011;42042;51.948;7.628;2023-03-23T01:05:20;10.97;;;6.17;;
3369;SDS011;42042;51.948;7.628;2023-03-23T01:07:47;7.90;;;6.67;;
3369;SDS011;42042;51.948;7.628;2023-03-23T01:10:14;8.30;;;6.93;;
3369;SDS011;42042;51.948;7.628;2023-03-23T01:12:43;8.20;;;6.93;;
3369;SDS011;42042;51.948;7.628;2023-03-23T01:15:13;8.33;;;6.00;;
3369;SDS011;42042;51.948;7.628;2023-03-23T01:17:41;12.40;;;6.30;;
3369;SDS011;42042;51.948;7.628;2023-03-23T01:20:09;8.37;;;5.33;;
3369;SDS011;42042;51.948;7.628;2023-03-23T01:22:37;8.23;;;6.70;;
3369;SDS011;42042;51.948;7.628;2023-03-23T01:25:04;6.73;;;6.03;;
3369;SDS011;42042;51.948;7.628;2023-03-23T01:27:32;7.50;;;5.93;;
3369;SDS011;42042;51.948;7.628;2023-03-23T01:29:59;6.33;;;5.30;;
3369;SDS011;42042;51.948;7.628;2023-03-23T01:32:26;6.00;;;5.40;;
3369;SDS011;42042;51.948;7.628;2023-03-23T01:34:53;9.60;;;5.27;;
3369;SDS011;42042;51.948;7.628;2023-03-23T01:37:22;6.17;;;5.33;;
3369;SDS011;42042;51.948;7.628;2023-03-23T01:39:51;7.20;;;5.13;;
3369;SDS011;42042;51.948;7.628;2023-03-23T01:42:20;5.73;;;5.13;;
3369;SDS011;42042;51.948;7.628;2023-03-23T01:47:41;4.83;;;4.10;;
3369;SDS011;42042;51.948;7.628;2023-03-23T01:50:09;5.57;;;5.07;;
3369;SDS011;42042;51.948;7.628;2023-03-23T01:52:37;6.63;;;5.30;;
3369;SDS011;42042;51.948;7.628;2023-03-23T01:55:06;10.20;;;5.80;;
3369;SDS011;42042;51.948;7.628;2023-03-23T01:57:33;7.20;;;4.87;;
3369;SDS011;42042;51.948;7.628;2023-03-23T02:00:01;7.73;;;5.13;;
3369;SDS011;42042;51.948;7.628;2023-03-23T02:02:33;4.40;;;4.00;;
3369;SDS011;42042;51.948;7.628;2023-03-23T02:05:04;9.20;;;4.60;;
3369;SDS011;42042;51.948;7.628;2023-03-23T02:07:35;4.93;;;4.53;;
3369;SDS011;42042;51.948;7.628;2023-03-23T02:10:04;9.33;;;4.90;;
3369;SDS011;42042;51.948;7.628;2023-03-23T02:12:32;7.20;;;4.50;;
3369;SDS011;42042;51.948;7.628;2023-03-23T02:14:59;9.23;;;4.70;;
3369;SDS011;42042;51.948;7.628;2023-03-23T02:17:30;4.80;;;4.17;;
3369;SDS011;42042;51.948;7.628;2023-03-23T02:20:02;6.60;;;4.13;;
3369;SDS011;42042;51.948;7.628;2023-03-23T02:22:43;6.63;;;4.30;;
3369;SDS011;42042;51.948;7.628;2023-03-23T02:25:25;6.00;;;3.97;;
3369;SDS011;42042;51.948;7.628;2023-03-23T02:28:04;6.60;;;4.30;;
3369;SDS011;42042;51.948;7.628;2023-03-23T02:30:37;7.53;;;4.07;;
3369;SDS011;42042;51.948;7.628;2023-03-23T02:33:12;6.50;;;3.83;;
3369;SDS011;42042;51.948;7.628;2023-03-23T02:35:42;4.73;;;4.30;;
3369;SDS011;42042;51.948;7.628;2023-03-23T02:38:12;6.73;;;4.67;;
3369;SDS011;42042;51.948;7.628;2023-03-23T02:40:41;5.40;;;4.20;;
3369;SDS011;42042;51.948;7.628;2023-03-23T02:43:10;4.70;;;4.00;;
3369;SDS011;42042;51.948;7.628;2023-03-23T02:45:39;4.63;;;4.23;;
3369;SDS011;42042;51.948;7.628;2023-03-23T02:48:08;3.87;;;3.53;;
3369;SDS011;42042;51.948;7.628;2023-03-23T02:50:37;5.40;;;4.10;;
3369;SDS011;42042;51.948;7.628;2023-03-23T02:53:07;6.10;;;3.30;;
3369;SDS011;42042;51.948;7.628;2023-03-23T02:55:36;4.10;;;3.50;;
3369;SDS011;42042;51.948;7.628;2023-03-23T02:58:05;4.90;;;3.53;;
3369;SDS011;42042;51.948;7.628;2023-03-23T03:00:33;4.37;;;3.97;;
3369;SDS011;42042;51.948;7.628;2023-03-23T03:03:00;4.40;;;3.83;;
3369;SDS011;42042;51.948;7.628;2023-03-23T03:05:30;3.03;;;2.80;;
3369;SDS011;42042;51.948;7.628;2023-03-23T03:08:05;5.90;;;3.77;;
3369;SDS011;42042;51.948;7.628;2023-03-23T03:10:36;7.97;;;3.60;;
3369;SDS011;42042;51.948;7.628;2023-03-23T03:13:05;3.20;;;3.00;;
3369;SDS011;42042;51.948;7.628;2023-03-23T03:15:34;3.63;;;2.90;;
3369;SDS011;42042;51.948;7.628;2023-03-23T03:18:05;3.37;;;2.97;;
3369;SDS011;42042;51.948;7.628;2023-03-23T03:20:33;3.03;;;2.73;;
3369;SDS011;42042;51.948;7.628;2023-03-23T03:23:02;4.07;;;2.87;;
3369;SDS011;42042;51.948;7.628;2023-03-23T03:25:34;5.73;;;3.13;;
3369;SDS011;42042;51.948;7.628;2023-03-23T03:28:01;2.70;;;2.50;;
3369;SDS011;42042;51.948;7.628;2023-03-23T03:30:30;3.60;;;3.17;;
3369;SDS011;42042;51.948;7.628;2023-03-23T03:32:59;3.20;;;2.77;;
3369;SDS011;42042;51.948;7.628;2023-03-23T03:35:28;2.60;;;2.40;;
3369;SDS011;42042;51.948;7.628;2023-03-23T03:37:56;3.40;;;2.60;;
3369;SDS011;42042;51.948;7.628;2023-03-23T03:40:25;3.23;;;2.93;;
3369;SDS011;42042;51.948;7.628;2023-03-23T03:42:54;3.33;;;3.03;;
3369;SDS011;42042;51.948;7.628;2023-03-23T03:45:21;5.50;;;3.20;;
3369;SDS011;42042;51.948;7.628;2023-03-23T03:47:48;2.70;;;2.50;;
3369;SDS011;42042;51.948;7.628;2023-03-23T03:50:15;3.77;;;2.87;;
3369;SDS011;42042;51.948;7.628;2023-03-23T03:52:42;5.60;;;3.30;;
3369;SDS011;42042;51.948;7.628;2023-03-23T03:55:10;3.30;;;3.00;;
3369;SDS011;42042;51.948;7.628;2023-03-23T03:57:37;3.07;;;2.87;;
3369;SDS011;42042;51.948;7.628;2023-03-23T04:00:08;3.33;;;3.10;;
3369;SDS011;42042;51.948;7.628;2023-03-23T04:02:39;3.53;;;3.23;;
3369;SDS011;42042;51.948;7.628;2023-03-23T04:05:06;3.23;;;2.90;;
3369;SDS011;42042;51.948;7.628;2023-03-23T04:07:35;3.30;;;3.00;;
3369;SDS011;42042;51.948;7.628;2023-03-23T04:10:04;4.60;;;3.30;;
3369;SDS011;42042;51.948;7.628;2023-03-23T04:12:32;3.53;;;2.93;;
3369;SDS011;42042;51.948;7.628;2023-03-23T04:14:59;3.63;;;3.03;;
3369;SDS011;42042;51.948;7.628;2023-03-23T04:17:27;3.60;;;3.30;;
3369;SDS011;42042;51.948;7.628;2023-03-23T04:19:55;3.83;;;3.50;;
3369;SDS011;42042;51.948;7.628;2023-03-23T04:22:24;6.67;;;3.47;;
3369;SDS011;42042;51.948;7.628;2023-03-23T04:24:55;3.23;;;3.00;;
3369;SDS011;42042;51.948;7.628;2023-03-23T04:27:23;3.30;;;3.00;;
3369;SDS011;42042;51.948;7.628;2023-03-23T04:29:52;4.13;;;3.40;;
3369;SDS011;42042;51.948;7.628;2023-03-23T04:32:20;3.50;;;3.10;;
3369;SDS011;42042;51.948;7.628;2023-03-23T04:34:48;3.20;;;2.90;;
3369;SDS011;42042;51.948;7.628;2023-03-23T04:37:16;10.33;;;3.43;;
3369;SDS011;42042;51.948;7.628;2023-03-23T04:39:43;2.97;;;2.77;;
3369;SDS011;42042;51.948;7.628;2023-03-23T04:42:11;4.13;;;2.83;;
3369;SDS011;42042;51.948;7.628;2023-03-23T04:44:39;3.10;;;2.70;;
3369;SDS011;42042;51.948;7.628;2023-03-23T04:47:08;6.83;;;2.77;;
3369;SDS011;42042;51.948;7.628;2023-03-23T04:49:35;5.97;;;2.90;;
3369;SDS011;42042;51.948;7.628;2023-03-23T04:52:04;3.20;;;2.90;;
3369;SDS011;42042;51.948;7.628;2023-03-23T04:54:31;3.00;;;2.80;;
3369;SDS011;42042;51.948;7.628;2023-03-23T04:56:58;2.90;;;2.60;;
3369;SDS011;42042;51.948;7.628;2023-03-23T04:59:26;3.30;;;3.00;;
3369;SDS011;42042;51.948;7.628;2023-03-23T05:01:53;2.90;;;2.60;;
3369;SDS011;42042;51.948;7.628;2023-03-23T05:04:21;3.30;;;3.00;;
3369;SDS011;42042;51.948;7.628;2023-03-23T05:06:50;3.43;;;2.70;;
3369;SDS011;42042;51.948;7.628;2023-03-23T05:09:18;5.03;;;3.40;;
3369;SDS011;42042;51.948;7.628;2023-03-23T05:11:46;3.63;;;3.23;;
3369;SDS011;42042;51.948;7.628;2023-03-23T05:14:13;3.30;;;3.07;;
3369;SDS011;42042;51.948;7.628;2023-03-23T05:16:40;3.90;;;3.03;;
3369;SDS011;42042;51.948;7.628;2023-03-23T05:19:12;3.80;;;3.17;;
3369;SDS011;42042;51.948;7.628;2023-03-23T05:21:39;2.80;;;2.60;;
3369;SDS011;42042;51.948;7.628;2023-03-23T05:24:06;5.10;;;2.90;;
3369;SDS011;42042;51.948;7.628;2023-03-23T05:26:35;3.37;;;3.07;;
3369;SDS011;42042;51.948;7.628;2023-03-23T05:29:02;4.37;;;3.37;;
3369;SDS011;42042;51.948;7.628;2023-03-23T05:31:30;4.73;;;3.43;;
3369;SDS011;42042;51.948;7.628;2023-03-23T05:33:57;4.33;;;3.93;;
3369;SDS011;42042;51.948;7.628;2023-03-23T05:36:24;3.30;;;3.00;;
3369;SDS011;42042;51.948;7.628;2023-03-23T05:38:51;4.20;;;3.73;;
3369;SDS011;42042;51.948;7.628;2023-03-23T05:41:18;5.70;;;3.70;;
3369;SDS011;42042;51.948;7.628;2023-03-23T05:43:47;6.37;;;3.87;;
3369;SDS011;42042;51.948;7.628;2023-03-23T05:46:14;4.20;;;3.47;;
3369;SDS011;42042;51.948;7.628;2023-03-23T05:48:41;4.70;;;3.50;;
3369;SDS011;42042;51.948;7.628;2023-03-23T05:51:08;5.57;;;3.80;;
3369;SDS011;42042;51.948;7.628;2023-03-23T05:53:36;6.83;;;4.03;;
3369;SDS011;42042;51.948;7.628;2023-03-23T05:56:03;3.60;;;3.30;;
3369;SDS011;42042;51.948;7.628;2023-03-23T05:58:31;5.17;;;4.20;;
3369;SDS011;42042;51.948;7.628;2023-03-23T06:01:00;5.20;;;4.10;;
3369;SDS011;42042;51.948;7.628;2023-03-23T06:03:28;4.33;;;3.93;;
3369;SDS011;42042;51.948;7.628;2023-03-23T06:05:55;4.47;;;3.67;;
3369;SDS011;42042;51.948;7.628;2023-03-23T06:08:22;3.57;;;3.27;;
3369;SDS011;42042;51.948;7.628;2023-03-23T06:10:50;4.00;;;3.03;;
3369;SDS011;42042;51.948;7.628;2023-03-23T06:13:17;3.37;;;3.10;;
3369;SDS011;42042;51.948;7.628;2023-03-23T06:15:44;10.10;;;4.27;;
3369;SDS011;42042;51.948;7.628;2023-03-23T06:18:13;4.00;;;3.30;;
3369;SDS011;42042;51.948;7.628;2023-03-23T06:20:40;5.33;;;3.97;;
3369;SDS011;42042;51.948;7.628;2023-03-23T06:23:09;10.50;;;3.87;;
3369;SDS011;42042;51.948;7.628;2023-03-23T06:25:36;3.57;;;3.23;;
3369;SDS011;42042;51.948;7.628;2023-03-23T06:28:04;3.87;;;3.57;;
3369;SDS011;42042;51.948;7.628;2023-03-23T06:30:31;6.03;;;4.00;;
3369;SDS011;42042;51.948;7.628;2023-03-23T06:32:59;4.83;;;4.10;;
3369;SDS011;42042;51.948;7.628;2023-03-23T06:35:28;4.50;;;3.50;;
3369;SDS011;42042;51.948;7.628;2023-03-23T06:37:55;4.30;;;3.90;;
3369;SDS011;42042;51.948;7.628;2023-03-23T06:40:26;5.40;;;3.77;;
3369;SDS011;42042;51.948;7.628;2023-03-23T06:42:53;6.27;;;3.63;;
3369;SDS011;42042;51.948;7.628;2023-03-23T06:45:20;4.10;;;3.10;;
3369;SDS011;42042;51.948;7.628;2023-03-23T06:47:48;7.63;;;4.30;;
3369;SDS011;42042;51.948;7.628;2023-03-23T06:50:15;7.43;;;3.97;;
3369;SDS011;42042;51.948;7.628;2023-03-23T06:52:46;6.27;;;4.23;;
3369;SDS011;42042;51.948;7.628;2023-03-23T06:55:13;4.93;;;4.20;;
3369;SDS011;42042;51.948;7.628;2023-03-23T06:57:40;4.70;;;3.53;;
3369;SDS011;42042;51.948;7.628;2023-03-23T07:00:09;4.17;;;3.43;;
3369;SDS011;42042;51.948;7.628;2023-03-23T07:02:38;5.50;;;3.90;;
3369;SDS011;42042;51.948;7.628;2023-03-23T07:05:05;3.83;;;3.53;;
3369;SDS011;42042;51.948;7.628;2023-03-23T07:07:34;7.37;;;4.00;;
3369;SDS011;42042;51.948;7.628;2023-03-23T07:10:03;9.50;;;3.73;;
3369;SDS011;42042;51.948;7.628;2023-03-23T07:12:30;7.13;;;3.83;;
3369;SDS011;42042;51.948;7.628;2023-03-23T07:14:58;4.63;;;3.90;;
3369;SDS011;42042;51.948;7.628;2023-03-23T07:17:25;6.30;;;4.50;;
3369;SDS011;42042;51.948;7.628;2023-03-23T07:19:53;6.80;;;4.23;;
3369;SDS011;42042;51.948;7.628;2023-03-23T07:22:20;4.80;;;3.97;;
3369;SDS011;42042;51.948;7.628;2023-03-23T07:24:47;5.27;;;3.90;;
3369;SDS011;42042;51.948;7.628;2023-03-23T07:27:16;5.23;;;3.47;;
3369;SDS011;42042;51.948;7.628;2023-03-23T07:29:44;4.37;;;3.50;;
3369;SDS011;42042;51.948;7.628;2023-03-23T07:32:11;4.53;;;3.20;;
3369;SDS011;42042;51.948;7.628;2023-03-23T07:34:38;5.17;;;4.07;;
3369;SDS011;42042;51.948;7.628;2023-03-23T07:37:06;4.43;;;4.03;;
3369;SDS011;42042;51.948;7.628;2023-03-23T07:39:33;5.93;;;3.40;;
3369;SDS011;42042;51.948;7.628;2023-03-23T07:42:01;8.57;;;3.77;;
3369;SDS011;42042;51.948;7.628;2023-03-23T07:44:30;5.83;;;3.53;;
3369;SDS011;42042;51.948;7.628;2023-03-23T07:46:58;6.37;;;3.63;;
3369;SDS011;42042;51.948;7.628;2023-03-23T07:49:25;7.03;;;4.10;;
3369;SDS011;42042;51.948;7.628;2023-03-23T07:51:52;5.67;;;2.97;;
3369;SDS011;42042;51.948;7.628;2023-03-23T07:54:20;8.20;;;3.97;;
3369;SDS011;42042;51.948;7.628;2023-03-23T07:56:48;7.50;;;4.00;;
3369;SDS011;42042;51.948;7.628;2023-03-23T07:59:16;5.43;;;3.70;;
3369;SDS011;42042;51.948;7.628;2023-03-23T08:01:44;5.87;;;3.83;;
3369;SDS011;42042;51.948;7.628;2023-03-23T08:04:11;6.50;;;4.00;;
3369;SDS011;42042;51.948;7.628;2023-03-23T08:06:40;5.40;;;3.37;;
3369;SDS011;42042;51.948;7.628;2023-03-23T08:09:07;4.57;;;4.10;;
3369;SDS011;42042;51.948;7.628;2023-03-23T08:11:35;5.40;;;3.53;;
3369;SDS011;42042;51.948;7.628;2023-03-23T08:14:02;3.87;;;3.57;;
3369;SDS011;42042;51.948;7.628;2023-03-23T08:16:30;4.43;;;2.67;;
3369;SDS011;42042;51.948;7.628;2023-03-23T08:18:59;7.23;;;3.40;;
3369;SDS011;42042;51.948;7.628;2023-03-23T08:21:27;9.77;;;4.10;;
3369;SDS011;42042;51.948;7.628;2023-03-23T08:23:54;3.67;;;3.33;;
3369;SDS011;42042;51.948;7.628;2023-03-23T08:26:21;4.10;;;3.20;;
3369;SDS011;42042;51.948;7.628;2023-03-23T08:28:49;3.30;;;3.00;;
3369;SDS011;42042;51.948;7.628;2023-03-23T08:31:16;3.90;;;3.00;;
3369;SDS011;42042;51.948;7.628;2023-03-23T08:33:43;5.47;;;3.40;;
3369;SDS011;42042;51.948;7.628;2023-03-23T08:36:13;7.20;;;3.93;;
3369;SDS011;42042;51.948;7.628;2023-03-23T08:38:40;7.93;;;4.10;;
3369;SDS011;42042;51.948;7.628;2023-03-23T08:41:08;3.10;;;2.67;;
3369;SDS011;42042;51.948;7.628;2023-03-23T08:43:35;5.07;;;3.37;;
3369;SDS011;42042;51.948;7.628;2023-03-23T08:46:04;5.80;;;3.20;;
3369;SDS011;42042;51.948;7.628;2023-03-23T08:48:34;6.40;;;3.57;;
3369;SDS011;42042;51.948;7.628;2023-03-23T08:51:02;6.30;;;3.17;;
3369;SDS011;42042;51.948;7.628;2023-03-23T08:53:31;6.77;;;4.00;;
3369;SDS011;42042;51.948;7.628;2023-03-23T08:56:02;3.73;;;3.27;;
3369;SDS011;42042;51.948;7.628;2023-03-23T08:58:30;8.50;;;3.77;;
3369;SDS011;42042;51.948;7.628;2023-03-23T09:00:57;16.13;;;3.83;;
3369;SDS011;42042;51.948;7.628;2023-03-23T09:03:25;7.30;;;3.30;;
3369;SDS011;42042;51.948;7.628;2023-03-23T09:05:52;4.07;;;2.73;;
3369;SDS011;42042;51.948;7.628;2023-03-23T09:08:19;4.47;;;3.70;;
3369;SDS011;42042;51.948;7.628;2023-03-23T09:10:48;5.83;;;3.13;;
3369;SDS011;42042;51.948;7.628;2023-03-23T09:13:15;7.20;;;3.43;;
3369;SDS011;42042;51.948;7.628;2023-03-23T09:15:42;6.33;;;3.60;;
3369;SDS011;42042;51.948;7.628;2023-03-23T09:18:10;7.50;;;4.33;;
3369;SDS011;42042;51.948;7.628;2023-03-23T09:20:37;6.23;;;3.43;;
3369;SDS011;42042;51.948;7.628;2023-03-23T09:23:05;5.13;;;3.97;;
3369;SDS011;42042;51.948;7.628;2023-03-23T09:25:32;4.20;;;3.70;;
3369;SDS011;42042;51.948;7.628;2023-03-23T09:28:00;5.30;;;3.67;;
3369;SDS011;42042;51.948;7.628;2023-03-23T09:30:28;8.30;;;3.60;;
3369;SDS011;42042;51.948;7.628;2023-03-23T09:32:56;7.00;;;4.23;;
3369;SDS011;42042;51.948;7.628;2023-03-23T09:35:25;4.60;;;3.70;;
3369;SDS011;42042;51.948;7.628;2023-03-23T09:37:53;7.63;;;4.03;;
3369;SDS011;42042;51.948;7.628;2023-03-23T09:40:22;10.30;;;4.37;;
3369;SDS011;42042;51.948;7.628;2023-03-23T09:42:53;7.37;;;3.97;;
3369;SDS011;42042;51.948;7.628;2023-03-23T09:45:25;8.47;;;3.80;;
3369;SDS011;42042;51.948;7.628;2023-03-23T09:48:00;4.40;;;2.70;;
3369;SDS011;42042;51.948;7.628;2023-03-23T09:50:31;5.13;;;2.43;;
3369;SDS011;42042;51.948;7.628;2023-03-23T09:53:00;7.00;;;1.77;;
3369;SDS011;42042;51.948;7.628;2023-03-23T09:55:28;2.23;;;1.97;;
3369;SDS011;42042;51.948;7.628;2023-03-23T09:57:57;1.13;;;1.10;;
3369;SDS011;42042;51.948;7.628;2023-03-23T10:00:30;1.40;;;1.30;;
3369;SDS011;42042;51.948;7.628;2023-03-23T10:03:00;2.20;;;1.10;;
3369;SDS011;42042;51.948;7.628;2023-03-23T10:05:31;1.20;;;1.10;;
3369;SDS011;42042;51.948;7.628;2023-03-23T10:07:59;5.80;;;1.30;;
3369;SDS011;42042;51.948;7.628;2023-03-23T10:10:29;1.30;;;1.20;;
3369;SDS011;42042;51.948;7.628;2023-03-23T10:12:59;1.92;;;1.30;;
3369;SDS011;42042;51.948;7.628;2023-03-23T10:15:30;2.07;;;1.50;;
3369;SDS011;42042;51.948;7.628;2023-03-23T10:17:59;3.53;;;1.73;;
3369;SDS011;42042;51.948;7.628;2023-03-23T10:20:36;1.60;;;1.50;;
3369;SDS011;42042;51.948;7.628;2023-03-23T10:23:13;1.30;;;1.20;;
3369;SDS011;42042;51.948;7.628;2023-03-23T10:25:41;1.47;;;1.37;;
3369;SDS011;42042;51.948;7.628;2023-03-23T10:28:10;1.27;;;1.17;;
3369;SDS011;42042;51.948;7.628;2023-03-23T10:30:40;2.17;;;1.30;;
3369;SDS011;42042;51.948;7.628;2023-03-23T10:33:10;2.73;;;1.60;;
3369;SDS011;42042;51.948;7.628;2023-03-23T10:35:39;2.10;;;1.30;;
3369;SDS011;42042;51.948;7.628;2023-03-23T10:38:10;1.80;;;1.37;;
3369;SDS011;42042;51.948;7.628;2023-03-23T10:40:43;1.57;;;1.27;;
3369;SDS011;42042;51.948;7.628;2023-03-23T10:43:12;4.57;;;1.67;;
3369;SDS011;42042;51.948;7.628;2023-03-23T10:45:41;2.00;;;1.40;;
3369;SDS011;42042;51.948;7.628;2023-03-23T10:48:12;1.80;;;1.70;;
3369;SDS011;42042;51.948;7.628;2023-03-23T10:50:42;2.13;;;1.60;;
3369;SDS011;42042;51.948;7.628;2023-03-23T10:53:13;2.23;;;2.03;;
3369;SDS011;42042;51.948;7.628;2023-03-23T10:55:41;3.13;;;1.83;;
3369;SDS011;42042;51.948;7.628;2023-03-23T10:58:10;5.23;;;2.53;;
3369;SDS011;42042;51.948;7.628;2023-03-23T11:00:40;3.87;;;1.80;;
3369;SDS011;42042;51.948;7.628;2023-03-23T11:03:22;1.93;;;1.60;;
3369;SDS011;42042;51.948;7.628;2023-03-23T11:05:52;4.97;;;1.90;;
3369;SDS011;42042;51.948;7.628;2023-03-23T11:08:20;2.93;;;2.03;;
3369;SDS011;42042;51.948;7.628;2023-03-23T11:10:48;1.53;;;1.43;;
3369;SDS011;42042;51.948;7.628;2023-03-23T11:13:17;1.67;;;1.50;;
3369;SDS011;42042;51.948;7.628;2023-03-23T11:15:46;4.60;;;1.80;;
3369;SDS011;42042;51.948;7.628;2023-03-23T11:18:18;1.93;;;1.70;;
3369;SDS011;42042;51.948;7.628;2023-03-23T11:20:48;6.10;;;1.87;;
3369;SDS011;42042;51.948;7.628;2023-03-23T11:23:20;6.67;;;1.97;;
3369;SDS011;42042;51.948;7.628;2023-03-23T11:25:55;2.87;;;1.70;;
3369;SDS011;42042;51.948;7.628;2023-03-23T11:28:25;2.90;;;1.60;;
3369;SDS011;42042;51.948;7.628;2023-03-23T11:30:53;3.43;;;1.50;;
3369;SDS011;42042;51.948;7.628;2023-03-23T11:33:21;6.17;;;1.97;;
3369;SDS011;42042;51.948;7.628;2023-03-23T11:35:53;2.80;;;1.60;;
3369;SDS011;42042;51.948;7.628;2023-03-23T11:38:21;2.83;;;1.93;;
3369;SDS011;42042;51.948;7.628;2023-03-23T11:40:51;1.70;;;1.60;;
3369;SDS011;42042;51.948;7.628;2023-03-23T11:43:19;11.30;;;2.77;;
3369;SDS011;42042;51.948;7.628;2023-03-23T11:45:48;3.43;;;1.43;;
3369;SDS011;42042;51.948;7.628;2023-03-23T11:48:18;6.20;;;2.27;;
3369;SDS011;42042;51.948;7.628;2023-03-23T11:50:48;3.27;;;1.60;;
3369;SDS011;42042;51.948;7.628;2023-03-23T11:53:23;4.47;;;1.90;;
3369;SDS011;42042;51.948;7.628;2023-03-23T11:55:57;3.87;;;2.27;;
3369;SDS011;42042;51.948;7.628;2023-03-23T11:58:27;2.67;;;1.40;;
3369;SDS011;42042;51.948;7.628;2023-03-23T12:00:58;6.40;;;1.67;;
3369;SDS011;42042;51.948;7.628;2023-03-23T12:03:27;2.70;;;1.70;;
3369;SDS011;42042;51.948;7.628;2023-03-23T12:05:59;1.93;;;1.70;;
3369;SDS011;42042;51.948;7.628;2023-03-23T12:08:42;3.50;;;1.93;;
3369;SDS011;42042;51.948;7.628;2023-03-23T12:11:15;2.60;;;1.77;;
3369;SDS011;42042;51.948;7.628;2023-03-23T12:13:51;2.97;;;1.90;;
3369;SDS011;42042;51.948;7.628;2023-03-23T12:16:28;5.73;;;2.00;;
3369;SDS011;42042;51.948;7.628;2023-03-23T12:19:02;2.33;;;1.60;;
3369;SDS011;42042;51.948;7.628;2023-03-23T12:21:33;1.67;;;1.27;;
3369;SDS011;42042;51.948;7.628;2023-03-23T12:24:08;3.07;;;1.67;;
3369;SDS011;42042;51.948;7.628;2023-03-23T12:26:41;3.83;;;1.60;;
3369;SDS011;42042;51.948;7.628;2023-03-23T12:29:15;2.53;;;2.00;;
3369;SDS011;42042;51.948;7.628;2023-03-23T12:31:47;3.77;;;1.70;;
3369;SDS011;42042;51.948;7.628;2023-03-23T12:34:18;4.40;;;1.63;;
3369;SDS011;42042;51.948;7.628;2023-03-23T12:36:50;2.30;;;1.67;;
3369;SDS011;42042;51.948;7.628;2023-03-23T12:39:45;3.27;;;1.60;;
3369;SDS011;42042;51.948;7.628;2023-03-23T12:42:16;4.80;;;1.70;;
3369;SDS011;42042;51.948;7.628;2023-03-23T12:44:48;1.57;;;1.47;;
3369;SDS011;42042;51.948;7.628;2023-03-23T12:49:59;1.60;;;1.50;;
3369;SDS011;42042;51.948;7.628;2023-03-23T12:52:28;2.00;;;1.83;;
3369;SDS011;42042;51.948;7.628;2023-03-23T12:54:59;2.07;;;1.87;;
3369;SDS011;42042;51.948;7.628;2023-03-23T12:57:29;3.53;;;2.03;;
3369;SDS011;42042;51.948;7.628;2023-03-23T12:59:59;2.10;;;1.90;;
3369;SDS011;42042;51.948;7.628;2023-03-23T13:02:36;4.23;;;2.17;;
3369;SDS011;42042;51.948;7.628;2023-03-23T13:05:06;2.40;;;1.80;;
3369;SDS011;42042;51.948;7.628;2023-03-23T13:07:37;4.57;;;2.10;;
3369;SDS011;42042;51.948;7.628;2023-03-23T13:10:12;2.77;;;2.57;;
3369;SDS011;42042;51.948;7.628;2023-03-23T13:12:44;3.10;;;2.77;;
3369;SDS011;42042;51.948;7.628;2023-03-23T13:15:16;2.70;;;2.50;;
3369;SDS011;42042;51.948;7.628;2023-03-23T13:17:47;2.90;;;2.60;;
3369;SDS011;42042;51.948;7.628;2023-03-23T13:20:30;2.23;;;2.03;;
3369;SDS011;42042;51.948;7.628;2023-03-23T13:23:00;4.23;;;3.10;;
3369;SDS011;42042;51.948;7.628;2023-03-23T13:25:41;3.20;;;3.00;;
3369;SDS011;42042;51.948;7.628;2023-03-23T13:28:13;4.23;;;3.40;;
3369;SDS011;42042;51.948;7.628;2023-03-23T13:30:41;4.00;;;3.60;;
3369;SDS011;42042;51.948;7.628;2023-03-23T13:33:19;3.53;;;3.20;;
3369;SDS011;42042;51.948;7.628;2023-03-23T13:35:48;4.57;;;3.73;;
3369;SDS011;42042;51.948;7.628;2023-03-23T13:38:18;4.80;;;4.33;;
3369;SDS011;42042;51.948;7.628;2023-03-23T13:40:47;4.60;;;4.30;;
3369;SDS011;42042;51.948;7.628;2023-03-23T13:43:24;5.20;;;4.80;;
3369;SDS011;42042;51.948;7.628;2023-03-23T13:45:52;5.47;;;4.97;;
3369;SDS011;42042;51.948;7.628;2023-03-23T13:48:22;6.83;;;5.10;;
3369;SDS011;42042;51.948;7.628;2023-03-23T13:50:51;5.00;;;4.47;;
3369;SDS011;42042;51.948;7.628;2023-03-23T13:53:23;5.87;;;5.37;;
3369;SDS011;42042;51.948;7.628;2023-03-23T13:56:03;5.20;;;4.90;;
3369;SDS011;42042;51.948;7.628;2023-03-23T13:58:30;8.70;;;6.13;;
3369;SDS011;42042;51.948;7.628;2023-03-23T14:01:03;7.63;;;5.30;;
3369;SDS011;42042;51.948;7.628;2023-03-23T14:03:38;6.67;;;6.07;;
3369;SDS011;42042;51.948;7.628;2023-03-23T14:06:05;6.17;;;5.67;;
3369;SDS011;42042;51.948;7.628;2023-03-23T14:08:37;7.67;;;5.90;;
3369;SDS011;42042;51.948;7.628;2023-03-23T14:11:11;6.40;;;5.77;;
3369;SDS011;42042;51.948;7.628;2023-03-23T14:13:41;6.90;;;6.10;;
3369;SDS011;42042;51.948;7.628;2023-03-23T14:16:14;8.87;;;6.10;;
3369;SDS011;42042;51.948;7.628;2023-03-23T14:18:42;7.10;;;6.60;;
3369;SDS011;42042;51.948;7.628;2023-03-23T14:21:15;7.23;;;6.67;;
3369;SDS011;42042;51.948;7.628;2023-03-23T14:23:42;8.70;;;7.77;;
3369;SDS011;42042;51.948;7.628;2023-03-23T14:26:15;9.07;;;7.13;;
3369;SDS011;42042;51.948;7.628;2023-03-23T14:28:43;8.10;;;7.40;;
3369;SDS011;42042;51.948;7.628;2023-03-23T14:31:14;9.10;;;8.20;;
3369;SDS011;42042;51.948;7.628;2023-03-23T14:33:43;9.50;;;8.63;;
3369;SDS011;42042;51.948;7.628;2023-03-23T14:36:10;9.77;;;8.87;;
3369;SDS011;42042;51.948;7.628;2023-03-23T14:38:37;9.03;;;8.13;;
3369;SDS011;42042;51.948;7.628;2023-03-23T14:41:05;10.03;;;9.20;;
3369;SDS011;42042;51.948;7.628;2023-03-23T14:43:34;8.87;;;8.17;;
3369;SDS011;42042;51.948;7.628;2023-03-23T14:46:04;9.63;;;8.80;;
3369;SDS011;42042;51.948;7.628;2023-03-23T14:48:33;10.40;;;9.27;;
3369;SDS011;42042;51.948;7.628;2023-03-23T14:51:01;9.90;;;8.90;;
3369;SDS011;42042;51.948;7.628;2023-03-23T14:53:31;10.57;;;8.03;;
3369;SDS011;42042;51.948;7.628;2023-03-23T14:56:00;7.83;;;7.00;;
3369;SDS011;42042;51.948;7.628;2023-03-23T14:58:29;7.80;;;7.00;;
3369;SDS011;42042;51.948;7.628;2023-03-23T15:00:58;9.47;;;7.03;;
3369;SDS011;42042;51.948;7.628;2023-03-23T15:03:26;7.30;;;6.60;;
3369;SDS011;42042;51.948;7.628;2023-03-23T15:05:54;7.93;;;5.77;;
3369;SDS011;42042;51.948;7.628;2023-03-23T15:08:24;6.87;;;6.23;;
3369;SDS011;42042;51.948;7.628;2023-03-23T15:11:01;8.47;;;6.40;;
3369;SDS011;42042;51.948;7.628;2023-03-23T15:13:30;6.73;;;6.00;;
3369;SDS011;42042;51.948;7.628;2023-03-23T15:16:02;6.40;;;5.80;;
3369;SDS011;42042;51.948;7.628;2023-03-23T15:18:31;8.87;;;6.57;;